This is the latest recevied weather packets stored in our database for station/object JA1RBY-13. If no packets are shown the sender has not sent any weather packets the latest 10 day(s).
| Time | Temp. | Humidity | Pressure | Rain* | Wind** | Luminosity | Snow |
|---|---|---|---|---|---|---|---|
| 1777613989 | 19.44° C | 69% | 996.9 hPa | 0 mm | - | - | - |
| 1777613090 | 18.89° C | 70% | 997.3 hPa | 0 mm | - | - | - |
| 1777611289 | 17.22° C | 76% | 998.1 hPa | 0 mm | - | - | - |
| 1777610390 | 17.22° C | 84% | 998.8 hPa | 0.25 mm | - | - | - |
| 1777609490 | 15.56° C | 88% | 998.9 hPa | 0.76 mm | - | - | - |
| 1777608590 | 15.56° C | 88% | 999.6 hPa | 1.02 mm | - | - | - |
| 1777607690 | 15° C | 88% | 1000.1 hPa | 1.27 mm | - | - | - |
| 1777606790 | 15° C | 89% | 1000.4 hPa | 1.02 mm | - | - | - |
| 1777605889 | 15° C | 88% | 1000.8 hPa | 1.27 mm | - | - | - |
| 1777604990 | 13.89° C | 88% | 1001.5 hPa | 2.03 mm | - | - | - |
| 1777604090 | 13.89° C | 88% | 1001.5 hPa | 2.03 mm | - | - | - |
| 1777603190 | 13.33° C | 87% | 1002.2 hPa | 2.03 mm | - | - | - |
| 1777602290 | 13.33° C | 87% | 1002.8 hPa | 2.54 mm | - | - | - |
| 1777601390 | 13.33° C | 87% | 1003.3 hPa | 3.3 mm | - | - | - |
| 1777582657 | 10.56° C | 84% | 1011.7 hPa | 1.52 mm | - | - | - |
| 1777541257 | 13.89° C | 59% | 1021 hPa | 0 mm | - | - | - |
| 1777540357 | 13.89° C | 59% | 1020.9 hPa | 0 mm | - | - | - |
| 1777538557 | 14.44° C | 58% | 1020.7 hPa | 0 mm | - | - | - |
| 1777537657 | 14.44° C | 57% | 1020.8 hPa | 0 mm | - | - | - |
| 1777536757 | 15° C | 56% | 1021.2 hPa | 0 mm | - | - | - |
| 1777534957 | 15° C | 56% | 1021 hPa | 0 mm | - | - | - |
| 1777534056 | 15° C | 56% | 1021 hPa | 0 mm | - | - | - |
| 1777530457 | 16.11° C | 53% | 1021.4 hPa | 0 mm | - | - | - |
| 1777528657 | 16.67° C | 53% | 1021.7 hPa | 0 mm | - | - | - |
| 1777527757 | 16.11° C | 53% | 1021.9 hPa | 0 mm | - | - | - |
* Rain latest hour (hover to see other rain measurements)
** Current wind speed in m/s (hover to see current wind gust speed)